Hulberton, New York
Current Conditions -  °F | °C
As of 9:54 AM on Monday 22 Dec 2014 (Local Time) from KROC Reporting Station
Broken Clouds Broken Clouds  
Wind Chill: 22°   Ceiling: 25000
Heat Index: 30°   Visibility: 10mi
Dew Point: 22°   Wind: 9mph
Humidity: 72%   Direction: 150°SSE
Pressure: 30.23"   Gusts: NA
Location:  43.2139°N, 78.0559°W
Report Text: KROC 221454Z 15008KT 10SM FEW140 FEW180 BKN250 M01/M06 A3023 RMK AO2 SLP248 T10111056 58005
Loading
Personal Weather Stations






























Interactive Weather Map New forecast layout! Learn more

10-Day Weather Forecast

Advertisements
Track Severe Weather on mobile